createdAt,value
2019-01-24T00:00:38.731Z,34.70
2019-01-24T00:03:07.723Z,36.00
2019-01-24T00:05:36.655Z,35.10
2019-01-24T00:08:05.875Z,35.73
2019-01-24T00:10:34.782Z,34.80
2019-01-24T00:13:03.619Z,36.05
2019-01-24T00:15:32.538Z,35.30
2019-01-24T00:18:01.735Z,35.37
2019-01-24T00:20:30.859Z,34.90
2019-01-24T00:23:00.034Z,34.35
2019-01-24T00:25:28.909Z,35.98
2019-01-24T00:28:17.164Z,35.52
2019-01-24T00:30:46.340Z,36.30
2019-01-24T00:33:15.420Z,35.90
2019-01-24T00:35:44.552Z,35.23
2019-01-24T00:38:13.391Z,35.48
2019-01-24T00:40:42.292Z,35.23
2019-01-24T00:43:11.430Z,35.47
2019-01-24T00:45:40.193Z,36.65
2019-01-24T00:48:09.086Z,36.35
2019-01-24T00:50:38.163Z,38.50
2019-01-24T00:53:07.164Z,37.55
2019-01-24T00:55:36.283Z,38.97
2019-01-24T00:58:05.484Z,39.60
2019-01-24T01:00:34.637Z,41.00
2019-01-24T01:03:03.497Z,42.03
2019-01-24T01:05:32.674Z,41.18
2019-01-24T01:08:01.549Z,43.38
2019-01-24T01:10:30.652Z,44.13
2019-01-24T01:12:59.747Z,43.95
2019-01-24T01:15:29.048Z,43.90
2019-01-24T01:17:58.140Z,44.60
2019-01-24T01:20:27.131Z,44.70
2019-01-24T01:22:56.136Z,46.18
2019-01-24T01:25:25.044Z,44.13
2019-01-24T01:27:53.921Z,45.98
2019-01-24T01:30:24.157Z,45.35
2019-01-24T01:32:53.660Z,46.50
2019-01-24T01:35:23.342Z,44.93
2019-01-24T01:37:52.160Z,46.18
2019-01-24T01:40:21.196Z,46.40
2019-01-24T01:42:50.109Z,45.10
2019-01-24T01:45:20.681Z,46.35
2019-01-24T01:47:50.131Z,46.15
2019-01-24T01:50:22.055Z,45.98
2019-01-24T01:52:51.171Z,45.75
2019-01-24T01:55:20.463Z,44.60
2019-01-24T01:57:49.446Z,45.67
2019-01-24T02:00:20.468Z,46.55
2019-01-24T02:02:49.604Z,46.13
2019-01-24T02:05:18.711Z,46.05
2019-01-24T02:07:48.094Z,45.80
2019-01-24T02:10:19.201Z,48.08
2019-01-24T02:12:48.524Z,46.42
2019-01-24T02:15:18.523Z,45.92
2019-01-24T02:17:47.734Z,45.43
2019-01-24T02:20:18.635Z,45.83
2019-01-24T02:22:47.542Z,46.60
2019-01-24T02:25:16.509Z,46.50
2019-01-24T02:27:45.596Z,47.05
2019-01-24T02:30:26.501Z,47.23
2019-01-24T02:32:55.783Z,46.10
2019-01-24T02:35:24.927Z,47.23
2019-01-24T02:37:53.775Z,47.37
2019-01-24T02:40:22.686Z,46.40
2019-01-24T02:42:51.457Z,46.23
2019-01-24T02:45:22.260Z,46.70
2019-01-24T02:47:51.414Z,47.40
2019-01-24T02:50:21.089Z,46.80
2019-01-24T02:52:49.961Z,47.20
2019-01-24T02:55:18.831Z,46.30
2019-01-24T02:57:47.975Z,46.70
2019-01-24T03:00:19.167Z,47.15
2019-01-24T03:02:48.124Z,46.77
2019-01-24T03:05:19.433Z,47.05
2019-01-24T03:07:48.473Z,46.98
2019-01-24T03:10:17.578Z,47.58
2019-01-24T03:12:46.491Z,48.45
2019-01-24T03:15:17.170Z,47.60
2019-01-24T03:17:46.044Z,46.33
2019-01-24T03:20:15.272Z,46.20
2019-01-24T03:22:44.320Z,46.95
2019-01-24T03:25:13.923Z,46.53
2019-01-24T03:27:42.820Z,44.83
2019-01-24T03:30:19.265Z,46.02
2019-01-24T03:32:48.124Z,46.80
2019-01-24T03:35:22.221Z,44.58
2019-01-24T03:37:51.112Z,45.40
2019-01-24T03:40:20.269Z,44.42
2019-01-24T03:42:49.782Z,44.13
2019-01-24T03:45:18.842Z,46.25
2019-01-24T03:47:48.520Z,46.02
2019-01-24T03:50:19.252Z,45.08
2019-01-24T03:52:48.956Z,45.63
2019-01-24T03:55:20.210Z,45.45
2019-01-24T03:57:49.608Z,45.45
2019-01-24T04:00:20.458Z,45.73
2019-01-24T04:02:50.280Z,44.65
2019-01-24T04:05:19.821Z,45.48
2019-01-24T04:07:48.652Z,45.65
2019-01-24T04:10:18.850Z,45.85
2019-01-24T04:12:47.771Z,47.63
2019-01-24T04:15:19.266Z,47.27
2019-01-24T04:17:48.192Z,48.87
2019-01-24T04:20:18.393Z,49.13
2019-01-24T04:22:47.264Z,48.52
2019-01-24T04:25:16.268Z,50.10
2019-01-24T04:27:45.355Z,48.08
2019-01-24T04:30:16.678Z,49.50
2019-01-24T04:32:46.016Z,50.07
2019-01-24T04:35:19.683Z,49.48
2019-01-24T04:37:45.459Z,50.63
2019-01-24T04:40:15.897Z,51.08
2019-01-24T04:42:44.822Z,48.83
2019-01-24T04:45:15.001Z,50.20
2019-01-24T04:47:44.196Z,51.30
2019-01-24T04:50:14.861Z,50.15
2019-01-24T04:52:43.986Z,50.05
2019-01-24T04:55:14.464Z,50.73
2019-01-24T04:57:43.309Z,50.38
2019-01-24T05:00:27.324Z,51.10
2019-01-24T05:02:56.117Z,50.97
2019-01-24T05:05:27.856Z,52.38
2019-01-24T05:07:55.628Z,51.97
2019-01-24T05:10:25.620Z,50.48
2019-01-24T05:12:54.390Z,52.00
2019-01-24T05:15:23.375Z,49.55
2019-01-24T05:17:52.321Z,52.83
2019-01-24T05:20:21.109Z,53.02
2019-01-24T05:22:49.998Z,54.40
2019-01-24T05:25:18.970Z,54.27
2019-01-24T05:27:47.762Z,54.63
2019-01-24T05:30:25.534Z,54.45
2019-01-24T05:32:55.419Z,54.83
2019-01-24T05:35:24.484Z,53.23
2019-01-24T05:37:53.364Z,54.98
2019-01-24T05:40:22.150Z,54.48
2019-01-24T05:42:51.011Z,53.15
2019-01-24T05:45:20.587Z,54.27
2019-01-24T05:47:49.876Z,51.70
2019-01-24T05:53:09.576Z,53.20
2019-01-24T05:55:38.465Z,52.55
2019-01-24T05:58:07.245Z,53.05
2019-01-24T06:00:38.558Z,52.93
2019-01-24T06:03:07.791Z,51.55
2019-01-24T06:05:41.686Z,53.48
2019-01-24T06:08:07.537Z,53.52
2019-01-24T06:10:36.435Z,53.02
2019-01-24T06:13:05.360Z,53.60
2019-01-24T06:15:34.200Z,52.53
2019-01-24T06:18:02.982Z,52.33
2019-01-24T06:20:31.870Z,52.43
2019-01-24T06:23:00.669Z,53.35
2019-01-24T06:25:30.066Z,51.08
2019-01-24T06:27:58.925Z,53.10
2019-01-24T06:30:27.685Z,51.70
2019-01-24T06:32:56.604Z,52.48
2019-01-24T06:35:25.392Z,51.93
2019-01-24T06:37:54.736Z,53.03
2019-01-24T06:40:23.580Z,51.68
2019-01-24T06:42:52.367Z,51.53
2019-01-24T06:45:22.337Z,52.80
2019-01-24T06:47:51.717Z,51.23
2019-01-24T06:50:21.217Z,51.33
2019-01-24T06:52:50.156Z,50.40
2019-01-24T06:55:27.636Z,50.37
2019-01-24T06:57:56.597Z,51.48
2019-01-24T07:00:25.805Z,51.53
2019-01-24T07:02:54.800Z,51.55
2019-01-24T07:05:24.368Z,48.80
2019-01-24T07:07:53.224Z,49.67
2019-01-24T07:10:22.782Z,47.75
2019-01-24T07:12:52.117Z,48.30
2019-01-24T07:15:22.146Z,47.50
2019-01-24T07:17:51.118Z,47.10
2019-01-24T07:20:20.295Z,49.00
2019-01-24T07:22:49.149Z,47.88
2019-01-24T07:25:23.732Z,48.87
2019-01-24T07:27:52.659Z,47.57
2019-01-24T07:30:21.801Z,48.28
2019-01-24T07:32:50.961Z,48.60
2019-01-24T07:35:20.413Z,49.73
2019-01-24T07:37:49.420Z,50.40
2019-01-24T07:40:18.850Z,49.65
2019-01-24T07:42:48.015Z,49.25
2019-01-24T07:45:23.078Z,48.87
2019-01-24T07:47:52.004Z,49.83
2019-01-24T07:50:21.267Z,49.18
2019-01-24T07:52:50.300Z,50.43
2019-01-24T07:55:19.331Z,49.85
2019-01-24T07:57:48.197Z,48.73
2019-01-24T08:00:19.810Z,49.55
2019-01-24T08:02:48.724Z,48.28
2019-01-24T08:05:17.963Z,48.90
2019-01-24T08:07:46.966Z,49.53
2019-01-24T08:10:17.194Z,49.73
2019-01-24T08:12:46.180Z,49.95
2019-01-24T08:15:16.653Z,51.05
2019-01-24T08:17:45.781Z,49.20
2019-01-24T08:20:17.100Z,50.12
2019-01-24T08:22:46.222Z,51.70
2019-01-24T08:25:16.003Z,48.40
2019-01-24T08:27:44.958Z,49.83
2019-01-24T08:30:16.842Z,49.90
2019-01-24T08:32:46.203Z,51.77
2019-01-24T08:35:15.312Z,51.60
2019-01-24T08:37:44.753Z,50.12
2019-01-24T08:40:14.708Z,51.55
2019-01-24T08:43:03.037Z,48.83
2019-01-24T08:45:32.375Z,51.97
2019-01-24T08:48:01.225Z,51.35
2019-01-24T08:50:30.602Z,50.80
2019-01-24T08:52:59.357Z,50.38
2019-01-24T08:55:54.628Z,53.08
2019-01-24T08:58:23.427Z,50.98
2019-01-24T09:00:52.285Z,50.40
2019-01-24T09:03:21.061Z,51.15
2019-01-24T09:05:50.157Z,52.27
2019-01-24T09:08:19.056Z,50.65
2019-01-24T09:10:48.011Z,49.90
2019-01-24T09:13:16.840Z,51.73
2019-01-24T09:15:45.635Z,51.00
2019-01-24T09:18:14.640Z,50.60
2019-01-24T09:20:43.454Z,48.73
2019-01-24T09:23:12.321Z,52.00
2019-01-24T09:25:41.359Z,52.33
2019-01-24T09:28:14.820Z,52.13
2019-01-24T09:30:41.170Z,52.23
2019-01-24T09:33:29.836Z,50.20
2019-01-24T09:35:58.728Z,50.75
2019-01-24T09:38:27.540Z,50.10
2019-01-24T09:40:56.669Z,50.63
2019-01-24T09:43:25.571Z,50.03
2019-01-24T09:45:54.725Z,51.25
2019-01-24T09:48:23.952Z,51.25
2019-01-24T09:50:52.733Z,52.53
2019-01-24T09:53:22.192Z,51.90
2019-01-24T09:55:51.149Z,51.20
2019-01-24T09:58:20.381Z,46.92
2019-01-24T10:00:49.512Z,48.70
2019-01-24T10:03:18.282Z,47.60
2019-01-24T10:05:47.137Z,47.78
2019-01-24T10:08:16.236Z,48.53
2019-01-24T10:10:45.308Z,46.33
2019-01-24T10:13:14.141Z,47.75
2019-01-24T10:15:42.933Z,47.98
2019-01-24T10:18:11.777Z,49.00
2019-01-24T10:20:41.046Z,48.40
2019-01-24T10:23:09.826Z,47.43
2019-01-24T10:25:57.819Z,48.28
2019-01-24T10:28:26.652Z,49.20
2019-01-24T10:30:55.620Z,49.08
2019-01-24T10:33:24.702Z,47.40
2019-01-24T10:35:53.453Z,48.02
2019-01-24T10:38:22.295Z,48.38
2019-01-24T10:40:51.281Z,49.25
2019-01-24T10:43:20.041Z,48.50
2019-01-24T10:45:48.885Z,48.02
2019-01-24T10:48:17.726Z,46.58
2019-01-24T10:50:46.836Z,47.15
2019-01-24T10:53:15.606Z,47.38
2019-01-24T10:55:44.403Z,47.15
2019-01-24T10:58:13.253Z,46.95
2019-01-24T11:00:43.496Z,46.73
2019-01-24T11:03:14.728Z,47.43
2019-01-24T11:05:43.677Z,46.00
2019-01-24T11:08:12.655Z,47.35
2019-01-24T11:10:41.498Z,47.38
2019-01-24T11:13:10.275Z,47.80
2019-01-24T11:15:39.485Z,48.80
2019-01-24T11:18:08.611Z,46.45
2019-01-24T11:20:37.642Z,46.73
2019-01-24T11:23:06.864Z,48.30
2019-01-24T11:25:36.023Z,48.17
2019-01-24T11:28:05.527Z,46.60
2019-01-24T11:30:35.153Z,47.23
2019-01-24T11:33:04.774Z,46.73
2019-01-24T11:35:34.865Z,47.27
2019-01-24T11:38:03.844Z,47.50
2019-01-24T11:40:32.708Z,48.13
2019-01-24T11:43:02.164Z,48.80
2019-01-24T11:45:33.547Z,47.50
2019-01-24T11:48:02.472Z,46.25
2019-01-24T11:50:31.262Z,47.40
2019-01-24T11:53:00.671Z,46.92
2019-01-24T11:55:29.774Z,46.73
2019-01-24T11:57:58.531Z,44.77
2019-01-24T12:00:32.305Z,46.33
2019-01-24T12:03:01.061Z,46.20
2019-01-24T12:05:29.907Z,46.58
2019-01-24T12:07:58.791Z,45.78
2019-01-24T12:10:27.848Z,45.28
2019-01-24T12:12:56.779Z,44.23
2019-01-24T12:15:26.338Z,45.57
2019-01-24T12:17:55.206Z,45.52
2019-01-24T12:20:24.786Z,46.30
2019-01-24T12:22:53.705Z,45.95
2019-01-24T12:25:23.693Z,46.02
2019-01-24T12:27:52.858Z,44.83
2019-01-24T12:30:24.593Z,45.43
2019-01-24T12:32:53.469Z,45.63
2019-01-24T12:35:22.312Z,43.68
2019-01-24T12:37:52.433Z,45.03
2019-01-24T12:40:21.305Z,44.90
2019-01-24T12:42:50.096Z,43.33
2019-01-24T12:45:24.281Z,43.78
2019-01-24T12:47:53.192Z,43.42
2019-01-24T12:50:23.744Z,43.90
2019-01-24T12:52:52.799Z,44.10
2019-01-24T12:55:22.263Z,45.67
2019-01-24T12:57:51.384Z,44.42
2019-01-24T13:00:25.356Z,45.25
2019-01-24T13:02:54.188Z,43.73
2019-01-24T13:05:23.193Z,43.17
2019-01-24T13:07:51.973Z,43.45
2019-01-24T13:10:22.469Z,43.78
2019-01-24T13:12:51.242Z,43.17
2019-01-24T13:15:23.427Z,43.33
2019-01-24T13:17:52.200Z,39.43
2019-01-24T13:20:21.188Z,41.18
2019-01-24T13:22:50.969Z,40.63
2019-01-24T13:25:22.281Z,43.73
2019-01-24T13:27:51.072Z,45.03
2019-01-24T13:30:22.204Z,46.40
2019-01-24T13:33:10.184Z,43.77
2019-01-24T13:35:39.249Z,45.55
2019-01-24T13:38:08.207Z,46.05
2019-01-24T13:40:37.448Z,44.95
2019-01-24T13:43:07.192Z,46.47
2019-01-24T13:45:40.141Z,46.43
2019-01-24T13:48:09.064Z,46.18
2019-01-24T13:50:38.034Z,45.58
2019-01-24T13:53:07.322Z,45.70
2019-01-24T13:55:36.172Z,45.17
2019-01-24T13:58:05.866Z,45.95
2019-01-24T14:00:36.578Z,42.15
2019-01-24T14:03:17.904Z,45.30
2019-01-24T14:05:46.708Z,47.40
2019-01-24T14:08:15.457Z,45.70
2019-01-24T14:10:44.389Z,45.15
2019-01-24T14:13:13.146Z,46.55
2019-01-24T14:15:42.249Z,44.90
2019-01-24T14:18:11.157Z,43.83
2019-01-24T14:20:40.016Z,39.35
2019-01-24T14:23:08.928Z,30.97
2019-01-24T14:25:38.166Z,30.70
2019-01-24T14:28:07.101Z,31.25
2019-01-24T14:30:36.152Z,32.55
2019-01-24T14:33:06.023Z,35.33
2019-01-24T14:35:35.049Z,34.27
2019-01-24T14:38:04.281Z,30.70
2019-01-24T14:40:33.135Z,32.05
2019-01-24T14:43:02.153Z,36.23
2019-01-24T14:45:31.344Z,35.65
2019-01-24T14:48:00.223Z,37.33
2019-01-24T14:50:29.304Z,39.65
2019-01-24T14:52:59.938Z,38.67
2019-01-24T14:55:29.100Z,39.30
2019-01-24T14:57:57.884Z,39.43
2019-01-24T15:00:32.706Z,39.30
2019-01-24T15:03:01.834Z,39.07
2019-01-24T15:05:30.836Z,39.18
2019-01-24T15:07:59.689Z,39.33
2019-01-24T15:10:28.912Z,40.33
2019-01-24T15:12:58.209Z,39.73
2019-01-24T15:15:27.213Z,40.30
2019-01-24T15:17:56.245Z,40.00
2019-01-24T15:20:25.237Z,39.90
2019-01-24T15:22:54.094Z,39.85
2019-01-24T15:25:23.263Z,39.90
2019-01-24T15:27:52.532Z,39.27
2019-01-24T15:30:22.893Z,39.20
2019-01-24T15:32:51.841Z,36.87
2019-01-24T15:35:21.023Z,38.35
2019-01-24T15:37:54.273Z,40.00
2019-01-24T15:40:26.423Z,39.55
2019-01-24T15:42:55.699Z,37.65
2019-01-24T15:45:25.216Z,37.00
2019-01-24T15:47:54.467Z,35.75
2019-01-24T15:50:24.333Z,37.38
2019-01-24T15:52:54.143Z,37.13
2019-01-24T15:55:34.914Z,37.33
2019-01-24T15:58:04.437Z,36.63
2019-01-24T16:00:34.241Z,35.57
2019-01-24T16:03:03.377Z,37.50
2019-01-24T16:05:32.608Z,38.53
2019-01-24T16:08:02.093Z,36.63
2019-01-24T16:10:31.171Z,36.38
2019-01-24T16:13:00.135Z,37.17
2019-01-24T16:15:31.696Z,38.87
2019-01-24T16:18:00.876Z,37.28
2019-01-24T16:20:30.126Z,40.08
2019-01-24T16:22:59.068Z,38.88
2019-01-24T16:25:29.953Z,41.10
2019-01-24T16:27:58.819Z,39.03
2019-01-24T16:30:29.672Z,38.28
2019-01-24T16:32:58.814Z,38.40
2019-01-24T16:35:27.903Z,40.05
2019-01-24T16:37:56.830Z,39.70
2019-01-24T16:40:26.760Z,40.20
2019-01-24T16:43:14.761Z,38.35
2019-01-24T16:45:44.179Z,38.38
2019-01-24T16:48:13.040Z,34.88
2019-01-24T16:50:42.130Z,37.00
2019-01-24T16:53:11.648Z,35.98
2019-01-24T16:55:40.492Z,34.43
2019-01-24T16:58:09.265Z,35.85
2019-01-24T17:00:44.435Z,34.75
2019-01-24T17:03:13.376Z,35.03
2019-01-24T17:05:42.310Z,35.95
2019-01-24T17:08:16.538Z,34.35
2019-01-24T17:10:41.980Z,33.58
2019-01-24T17:13:10.813Z,34.23
2019-01-24T17:15:39.950Z,32.88
2019-01-24T17:18:08.815Z,33.45
2019-01-24T17:20:37.636Z,34.50
2019-01-24T17:23:07.460Z,34.37
2019-01-24T17:25:36.380Z,34.48
2019-01-24T17:28:05.900Z,34.85
2019-01-24T17:30:35.148Z,33.80
2019-01-24T17:33:05.499Z,34.10
2019-01-24T17:35:34.330Z,34.37
2019-01-24T17:38:03.578Z,33.90
2019-01-24T17:40:32.613Z,35.60
2019-01-24T17:43:01.608Z,34.88
2019-01-24T17:45:32.043Z,35.50
2019-01-24T17:48:01.309Z,34.88
2019-01-24T17:50:30.209Z,34.73
2019-01-24T17:52:59.120Z,34.92
2019-01-24T17:55:34.202Z,36.42
2019-01-24T17:58:03.226Z,35.20
2019-01-24T18:00:35.311Z,34.63
2019-01-24T18:03:04.505Z,36.40
2019-01-24T18:05:33.379Z,36.87
2019-01-24T18:08:02.314Z,36.55
2019-01-24T18:10:33.056Z,36.42
2019-01-24T18:13:02.091Z,35.35
2019-01-24T18:15:31.411Z,36.93
2019-01-24T18:18:00.563Z,37.45
2019-01-24T18:20:31.391Z,38.28
2019-01-24T18:23:00.328Z,39.27
2019-01-24T18:25:29.373Z,40.30
2019-01-24T18:27:58.301Z,38.45
2019-01-24T18:30:28.241Z,36.00
2019-01-24T18:32:57.595Z,36.77
2019-01-24T18:35:26.524Z,37.55
2019-01-24T18:37:55.746Z,37.90
2019-01-24T18:40:26.162Z,39.97
2019-01-24T18:42:55.209Z,41.00
2019-01-24T18:45:30.152Z,39.95
2019-01-24T18:47:59.076Z,41.65
2019-01-24T18:50:28.005Z,41.65
2019-01-24T18:52:56.793Z,40.03
2019-01-24T18:55:25.795Z,39.78
2019-01-24T18:57:55.887Z,40.60
2019-01-24T19:00:50.336Z,39.25
2019-01-24T19:03:19.439Z,40.55
2019-01-24T19:05:48.424Z,41.00
2019-01-24T19:08:17.529Z,42.80
2019-01-24T19:10:46.458Z,41.88
2019-01-24T19:13:15.321Z,41.02
2019-01-24T19:15:46.151Z,39.83
2019-01-24T19:18:15.119Z,40.80
2019-01-24T19:20:44.224Z,41.28
2019-01-24T19:23:13.385Z,44.95
2019-01-24T19:25:42.459Z,44.17
2019-01-24T19:28:13.820Z,45.23
2019-01-24T19:30:42.680Z,43.53
2019-01-24T19:33:11.732Z,42.65
2019-01-24T19:35:40.521Z,43.95
2019-01-24T19:38:09.738Z,43.40
2019-01-24T19:40:38.713Z,43.45
2019-01-24T19:43:07.665Z,44.63
2019-01-24T19:45:36.521Z,43.83
2019-01-24T19:48:06.097Z,42.88
2019-01-24T19:50:34.896Z,45.43
2019-01-24T19:53:04.862Z,43.65
2019-01-24T19:55:34.125Z,43.63
2019-01-24T19:58:04.389Z,44.05
2019-01-24T20:00:33.448Z,44.13
2019-01-24T20:03:02.504Z,44.15
2019-01-24T20:05:31.444Z,42.27
2019-01-24T20:08:00.534Z,41.85
2019-01-24T20:10:30.338Z,42.83
2019-01-24T20:13:02.007Z,42.48
2019-01-24T20:15:31.568Z,42.13
2019-01-24T20:18:00.609Z,41.90
2019-01-24T20:20:29.584Z,43.15
2019-01-24T20:22:58.790Z,42.85
2019-01-24T20:25:29.549Z,42.70
2019-01-24T20:27:58.764Z,43.28
2019-01-24T20:30:29.171Z,42.70
2019-01-24T20:33:00.525Z,43.68
2019-01-24T20:35:32.205Z,41.83
2019-01-24T20:38:01.068Z,42.70
2019-01-24T20:40:29.932Z,43.77
2019-01-24T20:42:59.237Z,42.53
2019-01-24T20:45:29.473Z,43.13
2019-01-24T20:47:58.869Z,44.55
2019-01-24T20:50:27.775Z,41.88
2019-01-24T20:52:56.691Z,43.43
2019-01-24T20:55:25.847Z,43.75
2019-01-24T20:57:54.979Z,43.25
2019-01-24T21:00:24.340Z,46.68
2019-01-24T21:02:53.676Z,46.92
2019-01-24T21:05:22.753Z,49.37
2019-01-24T21:07:51.696Z,48.80
2019-01-24T21:10:22.725Z,47.95
2019-01-24T21:12:51.886Z,48.15
2019-01-24T21:15:20.980Z,47.65
2019-01-24T21:17:50.292Z,48.02
2019-01-24T21:20:21.167Z,48.60
2019-01-24T21:22:50.094Z,47.23
2019-01-24T21:25:19.940Z,47.30
2019-01-24T21:27:48.921Z,48.15
2019-01-24T21:30:37.264Z,47.78
2019-01-24T21:33:07.108Z,46.80
2019-01-24T21:35:35.959Z,46.63
2019-01-24T21:38:06.920Z,52.30
2019-01-24T21:40:36.101Z,53.45
2019-01-24T21:43:05.437Z,53.10
2019-01-24T21:45:34.509Z,54.65
2019-01-24T21:48:03.926Z,52.67
2019-01-24T21:50:33.555Z,52.93
2019-01-24T21:53:02.362Z,48.58
2019-01-24T21:55:31.554Z,48.45
2019-01-24T21:58:00.336Z,48.33
2019-01-24T22:00:29.995Z,47.97
2019-01-24T22:02:59.915Z,47.97
2019-01-24T22:05:29.945Z,48.98
2019-01-24T22:07:58.847Z,48.95
2019-01-24T22:10:28.536Z,47.03
2019-01-24T22:12:57.558Z,48.17
2019-01-24T22:15:28.076Z,48.08
2019-01-24T22:17:57.354Z,48.55
2019-01-24T22:20:26.329Z,49.30
2019-01-24T22:22:55.165Z,48.08
2019-01-24T22:25:29.658Z,49.50
2019-01-24T22:27:58.871Z,48.40
2019-01-24T22:30:32.677Z,48.20
2019-01-24T22:33:01.837Z,49.55
2019-01-24T22:35:30.684Z,50.20
2019-01-24T22:37:59.617Z,48.35
2019-01-24T22:40:28.381Z,49.30
2019-01-24T22:42:57.304Z,48.25
2019-01-24T22:45:26.231Z,48.17
2019-01-24T22:47:55.518Z,49.15
2019-01-24T22:50:24.748Z,49.03
2019-01-24T22:52:53.530Z,49.77
2019-01-24T22:55:22.452Z,49.85
2019-01-24T22:57:51.249Z,50.75
2019-01-24T23:00:53.347Z,51.02
2019-01-24T23:03:43.994Z,50.33
2019-01-24T23:06:12.903Z,50.50
2019-01-24T23:08:41.755Z,52.00
2019-01-24T23:11:10.675Z,50.00
2019-01-24T23:13:39.556Z,50.60
2019-01-24T23:16:08.644Z,49.75
2019-01-24T23:18:37.600Z,49.63
2019-01-24T23:21:06.650Z,50.50
2019-01-24T23:23:35.513Z,50.00
2019-01-24T23:26:04.621Z,50.48
2019-01-24T23:28:33.664Z,49.40
2019-01-24T23:31:02.588Z,50.83
2019-01-24T23:33:32.491Z,49.42
2019-01-24T23:36:01.251Z,50.75
2019-01-24T23:38:30.459Z,50.15
2019-01-24T23:40:59.248Z,51.40
2019-01-24T23:43:28.535Z,50.73
2019-01-24T23:45:57.380Z,50.80
2019-01-24T23:48:26.234Z,51.02
2019-01-24T23:50:55.130Z,50.78
2019-01-24T23:53:24.227Z,50.90
2019-01-24T23:55:53.147Z,50.57
2019-01-24T23:58:21.953Z,49.80
